This is the latest recevied weather packets stored in our database for station/object dl9mfl-6. If no packets are shown the sender has not sent any weather packets the latest 10 day(s).
| Time | Temp. | Humidity | Pressure | Rain* | Wind** | Luminosity | Snow |
|---|---|---|---|---|---|---|---|
| 1777743263 | 22.78° C | 40% | 1015 hPa | 0 mm | - | - | - |
| 1777743128 | 3.33° C | 85% | 1020.7 hPa | 0 mm | - | - | - |
| 1777743124 | 3.33° C | 85% | 1020.7 hPa | 0 mm | - | - | - |
| 1777743120 | 3.33° C | 85% | 1020.7 hPa | 0 mm | - | - | - |
| 1777743116 | 2.78° C | 85% | 1020.7 hPa | 0 mm | - | - | - |
| 1777743112 | 2.78° C | 85% | 1020.7 hPa | 0 mm | - | - | - |
| 1777743104 | 2.78° C | 85% | 1020.7 hPa | 0 mm | - | - | - |
| 1777743100 | 22.78° C | 38% | 1015 hPa | 0 mm | - | - | - |
| 1777743095 | 2.78° C | 86% | 1020.7 hPa | 0 mm | - | - | - |
| 1777743091 | 2.78° C | 86% | 1020.7 hPa | 0 mm | - | - | - |
| 1777743087 | 2.78° C | 86% | 1020.7 hPa | 0 mm | - | - | - |
| 1777743083 | 2.78° C | 86% | 1020.7 hPa | 0 mm | - | - | - |
| 1777743075 | 2.78° C | 86% | 1020.7 hPa | 0 mm | - | - | - |
| 1777743071 | 2.78° C | 85% | 1020.7 hPa | 0 mm | - | - | - |
| 1777743067 | 2.22° C | 85% | 1020.7 hPa | 0 mm | - | - | - |
| 1777743063 | 2.22° C | 85% | 1020.7 hPa | 0 mm | - | - | - |
| 1777743059 | 2.22° C | 85% | 1020.8 hPa | 0 mm | - | - | - |
| 1777743051 | 2.22° C | 85% | 1020.7 hPa | 0 mm | - | - | - |
| 1777743046 | 2.22° C | 84% | 1020.6 hPa | 0 mm | - | - | - |
| 1777743042 | 2.22° C | 84% | 1020.6 hPa | 0 mm | - | - | - |
| 1777743038 | 22.78° C | 39% | 1015.1 hPa | 0 mm | - | - | - |
| 1777743034 | 2.22° C | 84% | 1020.6 hPa | 0 mm | - | - | - |
| 1777743030 | 2.22° C | 84% | 1020.6 hPa | 0 mm | - | - | - |
| 1777743022 | 22.78° C | 39% | 1015.1 hPa | 0 mm | - | - | - |
| 1777743013 | 22.78° C | 39% | 1015.1 hPa | 0 mm | - | - | - |
* Rain latest hour (hover to see other rain measurements)
** Current wind speed in m/s (hover to see current wind gust speed)